sensor_id;sensor_type;location;lat;lon;timestamp;P1;durP1;ratioP1;P2;durP2;ratioP2
26965;SDS011;14522;52.068;4.414;2023-01-19T00:00:12;2.22;;;0.57;;
26965;SDS011;14522;52.068;4.414;2023-01-19T00:02:40;1.85;;;0.30;;
26965;SDS011;14522;52.068;4.414;2023-01-19T00:05:08;2.53;;;0.40;;
26965;SDS011;14522;52.068;4.414;2023-01-19T00:07:35;2.55;;;0.47;;
26965;SDS011;14522;52.068;4.414;2023-01-19T00:10:01;6.10;;;0.82;;
26965;SDS011;14522;52.068;4.414;2023-01-19T00:12:27;1.75;;;0.63;;
26965;SDS011;14522;52.068;4.414;2023-01-19T00:14:54;4.18;;;0.57;;
26965;SDS011;14522;52.068;4.414;2023-01-19T00:17:20;3.78;;;0.50;;
26965;SDS011;14522;52.068;4.414;2023-01-19T00:19:47;7.72;;;0.75;;
26965;SDS011;14522;52.068;4.414;2023-01-19T00:22:13;3.33;;;0.55;;
26965;SDS011;14522;52.068;4.414;2023-01-19T00:24:39;5.07;;;0.50;;
26965;SDS011;14522;52.068;4.414;2023-01-19T00:27:06;3.15;;;0.50;;
26965;SDS011;14522;52.068;4.414;2023-01-19T00:29:32;4.57;;;0.50;;
26965;SDS011;14522;52.068;4.414;2023-01-19T00:31:59;3.72;;;0.90;;
26965;SDS011;14522;52.068;4.414;2023-01-19T00:34:26;8.52;;;0.63;;
26965;SDS011;14522;52.068;4.414;2023-01-19T00:36:52;2.83;;;0.43;;
26965;SDS011;14522;52.068;4.414;2023-01-19T00:39:19;6.93;;;0.80;;
26965;SDS011;14522;52.068;4.414;2023-01-19T00:41:45;3.92;;;0.88;;
26965;SDS011;14522;52.068;4.414;2023-01-19T00:44:30;5.55;;;0.57;;
26965;SDS011;14522;52.068;4.414;2023-01-19T00:46:57;3.85;;;0.40;;
26965;SDS011;14522;52.068;4.414;2023-01-19T00:49:23;1.92;;;0.50;;
26965;SDS011;14522;52.068;4.414;2023-01-19T00:51:49;7.50;;;0.82;;
26965;SDS011;14522;52.068;4.414;2023-01-19T00:54:16;3.65;;;0.50;;
26965;SDS011;14522;52.068;4.414;2023-01-19T00:56:42;2.92;;;0.50;;
26965;SDS011;14522;52.068;4.414;2023-01-19T00:59:09;5.70;;;0.68;;
26965;SDS011;14522;52.068;4.414;2023-01-19T01:01:35;3.67;;;0.68;;
26965;SDS011;14522;52.068;4.414;2023-01-19T01:06:38;6.43;;;0.43;;
26965;SDS011;14522;52.068;4.414;2023-01-19T01:09:05;2.83;;;0.43;;
26965;SDS011;14522;52.068;4.414;2023-01-19T01:11:40;3.13;;;1.25;;
26965;SDS011;14522;52.068;4.414;2023-01-19T01:14:07;2.85;;;0.63;;
26965;SDS011;14522;52.068;4.414;2023-01-19T01:16:34;4.32;;;0.40;;
26965;SDS011;14522;52.068;4.414;2023-01-19T01:19:00;3.53;;;0.55;;
26965;SDS011;14522;52.068;4.414;2023-01-19T01:21:27;6.20;;;0.40;;
26965;SDS011;14522;52.068;4.414;2023-01-19T01:23:53;1.67;;;0.30;;
26965;SDS011;14522;52.068;4.414;2023-01-19T01:26:20;2.22;;;0.40;;
26965;SDS011;14522;52.068;4.414;2023-01-19T01:28:46;3.30;;;0.63;;
26965;SDS011;14522;52.068;4.414;2023-01-19T01:31:13;1.25;;;0.40;;
26965;SDS011;14522;52.068;4.414;2023-01-19T01:33:39;4.30;;;0.57;;
26965;SDS011;14522;52.068;4.414;2023-01-19T01:36:07;3.30;;;0.35;;
26965;SDS011;14522;52.068;4.414;2023-01-19T01:38:34;5.03;;;0.50;;
26965;SDS011;14522;52.068;4.414;2023-01-19T01:41:00;4.40;;;0.60;;
26965;SDS011;14522;52.068;4.414;2023-01-19T01:43:40;4.53;;;0.52;;
26965;SDS011;14522;52.068;4.414;2023-01-19T01:46:06;10.25;;;0.60;;
26965;SDS011;14522;52.068;4.414;2023-01-19T01:48:33;4.70;;;0.73;;
26965;SDS011;14522;52.068;4.414;2023-01-19T01:51:01;4.70;;;1.20;;
26965;SDS011;14522;52.068;4.414;2023-01-19T01:53:48;5.60;;;0.45;;
26965;SDS011;14522;52.068;4.414;2023-01-19T01:56:18;3.75;;;0.40;;
26965;SDS011;14522;52.068;4.414;2023-01-19T01:58:46;5.75;;;0.82;;
26965;SDS011;14522;52.068;4.414;2023-01-19T02:01:13;2.15;;;0.50;;
26965;SDS011;14522;52.068;4.414;2023-01-19T02:03:58;5.25;;;0.63;;
26965;SDS011;14522;52.068;4.414;2023-01-19T02:06:25;5.05;;;0.77;;
26965;SDS011;14522;52.068;4.414;2023-01-19T02:09:01;3.17;;;0.47;;
26965;SDS011;14522;52.068;4.414;2023-01-19T02:11:48;2.25;;;0.45;;
26965;SDS011;14522;52.068;4.414;2023-01-19T02:14:33;6.38;;;0.38;;
26965;SDS011;14522;52.068;4.414;2023-01-19T02:17:02;3.70;;;0.43;;
26965;SDS011;14522;52.068;4.414;2023-01-19T02:19:30;1.00;;;0.20;;
26965;SDS011;14522;52.068;4.414;2023-01-19T02:27:00;2.40;;;0.45;;
26965;SDS011;14522;52.068;4.414;2023-01-19T02:29:26;9.63;;;0.68;;
26965;SDS011;14522;52.068;4.414;2023-01-19T02:31:53;3.25;;;0.40;;
26965;SDS011;14522;52.068;4.414;2023-01-19T02:34:21;3.08;;;0.40;;
26965;SDS011;14522;52.068;4.414;2023-01-19T02:39:18;2.95;;;0.68;;
26965;SDS011;14522;52.068;4.414;2023-01-19T02:41:46;2.97;;;0.40;;
26965;SDS011;14522;52.068;4.414;2023-01-19T02:44:13;3.35;;;0.50;;
26965;SDS011;14522;52.068;4.414;2023-01-19T02:46:40;2.42;;;0.40;;
26965;SDS011;14522;52.068;4.414;2023-01-19T02:49:07;1.38;;;0.30;;
26965;SDS011;14522;52.068;4.414;2023-01-19T02:51:33;1.13;;;0.40;;
26965;SDS011;14522;52.068;4.414;2023-01-19T02:59:08;2.38;;;0.43;;
26965;SDS011;14522;52.068;4.414;2023-01-19T03:04:10;1.98;;;0.43;;
26965;SDS011;14522;52.068;4.414;2023-01-19T03:06:48;6.15;;;0.65;;
26965;SDS011;14522;52.068;4.414;2023-01-19T03:09:28;5.28;;;0.32;;
26965;SDS011;14522;52.068;4.414;2023-01-19T03:12:05;2.80;;;0.50;;
26965;SDS011;14522;52.068;4.414;2023-01-19T03:14:35;4.75;;;0.90;;
26965;SDS011;14522;52.068;4.414;2023-01-19T03:17:05;5.68;;;0.70;;
26965;SDS011;14522;52.068;4.414;2023-01-19T03:19:36;7.95;;;1.08;;
26965;SDS011;14522;52.068;4.414;2023-01-19T03:22:05;7.80;;;0.68;;
26965;SDS011;14522;52.068;4.414;2023-01-19T03:24:35;8.85;;;1.23;;
26965;SDS011;14522;52.068;4.414;2023-01-19T03:27:05;5.78;;;1.20;;
26965;SDS011;14522;52.068;4.414;2023-01-19T03:29:33;3.85;;;1.02;;
26965;SDS011;14522;52.068;4.414;2023-01-19T03:32:03;4.03;;;0.70;;
26965;SDS011;14522;52.068;4.414;2023-01-19T03:34:32;4.38;;;0.95;;
26965;SDS011;14522;52.068;4.414;2023-01-19T03:37:00;16.65;;;2.15;;
26965;SDS011;14522;52.068;4.414;2023-01-19T03:39:28;8.90;;;1.15;;
26965;SDS011;14522;52.068;4.414;2023-01-19T03:41:56;13.93;;;1.25;;
26965;SDS011;14522;52.068;4.414;2023-01-19T03:44:24;10.27;;;0.82;;
26965;SDS011;14522;52.068;4.414;2023-01-19T03:46:51;7.88;;;1.17;;
26965;SDS011;14522;52.068;4.414;2023-01-19T03:49:18;7.18;;;1.30;;
26965;SDS011;14522;52.068;4.414;2023-01-19T03:51:45;4.78;;;1.00;;
26965;SDS011;14522;52.068;4.414;2023-01-19T03:54:11;7.55;;;1.00;;
26965;SDS011;14522;52.068;4.414;2023-01-19T03:56:38;8.13;;;1.30;;
26965;SDS011;14522;52.068;4.414;2023-01-19T03:59:04;16.38;;;2.13;;
26965;SDS011;14522;52.068;4.414;2023-01-19T04:01:32;9.95;;;1.27;;
26965;SDS011;14522;52.068;4.414;2023-01-19T04:03:58;9.43;;;1.40;;
26965;SDS011;14522;52.068;4.414;2023-01-19T04:06:24;10.15;;;1.35;;
26965;SDS011;14522;52.068;4.414;2023-01-19T04:08:52;9.50;;;1.30;;
26965;SDS011;14522;52.068;4.414;2023-01-19T04:11:19;9.70;;;1.33;;
26965;SDS011;14522;52.068;4.414;2023-01-19T04:13:45;8.35;;;1.83;;
26965;SDS011;14522;52.068;4.414;2023-01-19T04:16:11;13.93;;;1.35;;
26965;SDS011;14522;52.068;4.414;2023-01-19T04:18:39;5.80;;;1.30;;
26965;SDS011;14522;52.068;4.414;2023-01-19T04:21:06;11.43;;;1.50;;
26965;SDS011;14522;52.068;4.414;2023-01-19T04:23:32;11.13;;;1.63;;
26965;SDS011;14522;52.068;4.414;2023-01-19T04:26:03;10.77;;;1.38;;
26965;SDS011;14522;52.068;4.414;2023-01-19T04:28:30;5.90;;;1.65;;
26965;SDS011;14522;52.068;4.414;2023-01-19T04:30:57;6.80;;;1.13;;
26965;SDS011;14522;52.068;4.414;2023-01-19T04:33:23;9.25;;;1.17;;
26965;SDS011;14522;52.068;4.414;2023-01-19T04:35:50;7.45;;;1.92;;
26965;SDS011;14522;52.068;4.414;2023-01-19T04:38:19;9.02;;;1.83;;
26965;SDS011;14522;52.068;4.414;2023-01-19T04:40:47;9.23;;;1.45;;
26965;SDS011;14522;52.068;4.414;2023-01-19T04:43:13;8.98;;;1.70;;
26965;SDS011;14522;52.068;4.414;2023-01-19T04:45:40;16.20;;;2.13;;
26965;SDS011;14522;52.068;4.414;2023-01-19T04:48:06;13.10;;;2.65;;
26965;SDS011;14522;52.068;4.414;2023-01-19T04:50:33;12.73;;;2.40;;
26965;SDS011;14522;52.068;4.414;2023-01-19T04:52:59;9.65;;;1.58;;
26965;SDS011;14522;52.068;4.414;2023-01-19T04:55:26;9.95;;;1.48;;
26965;SDS011;14522;52.068;4.414;2023-01-19T04:57:53;14.90;;;2.45;;
26965;SDS011;14522;52.068;4.414;2023-01-19T05:00:19;7.43;;;1.45;;
26965;SDS011;14522;52.068;4.414;2023-01-19T05:02:46;6.97;;;1.00;;
26965;SDS011;14522;52.068;4.414;2023-01-19T05:05:12;13.15;;;2.00;;
26965;SDS011;14522;52.068;4.414;2023-01-19T05:07:39;13.05;;;1.95;;
26965;SDS011;14522;52.068;4.414;2023-01-19T05:10:05;7.13;;;1.40;;
26965;SDS011;14522;52.068;4.414;2023-01-19T05:12:32;15.13;;;1.60;;
26965;SDS011;14522;52.068;4.414;2023-01-19T05:14:58;13.50;;;1.88;;
26965;SDS011;14522;52.068;4.414;2023-01-19T05:17:25;10.15;;;1.83;;
26965;SDS011;14522;52.068;4.414;2023-01-19T05:19:51;12.38;;;1.77;;
26965;SDS011;14522;52.068;4.414;2023-01-19T05:22:17;10.10;;;1.50;;
26965;SDS011;14522;52.068;4.414;2023-01-19T05:24:44;9.05;;;1.50;;
26965;SDS011;14522;52.068;4.414;2023-01-19T05:27:10;16.38;;;1.73;;
26965;SDS011;14522;52.068;4.414;2023-01-19T05:29:36;17.83;;;2.47;;
26965;SDS011;14522;52.068;4.414;2023-01-19T05:32:03;10.05;;;1.80;;
26965;SDS011;14522;52.068;4.414;2023-01-19T05:34:29;13.07;;;1.40;;
26965;SDS011;14522;52.068;4.414;2023-01-19T05:36:56;12.00;;;1.63;;
26965;SDS011;14522;52.068;4.414;2023-01-19T05:39:22;9.93;;;1.50;;
26965;SDS011;14522;52.068;4.414;2023-01-19T05:41:48;10.98;;;2.10;;
26965;SDS011;14522;52.068;4.414;2023-01-19T05:44:15;17.10;;;2.53;;
26965;SDS011;14522;52.068;4.414;2023-01-19T05:46:41;11.20;;;1.50;;
26965;SDS011;14522;52.068;4.414;2023-01-19T05:49:08;10.77;;;1.80;;
26965;SDS011;14522;52.068;4.414;2023-01-19T05:51:34;9.63;;;1.50;;
26965;SDS011;14522;52.068;4.414;2023-01-19T05:54:03;12.32;;;1.52;;
26965;SDS011;14522;52.068;4.414;2023-01-19T05:56:30;8.35;;;1.40;;
26965;SDS011;14522;52.068;4.414;2023-01-19T05:58:56;9.32;;;1.63;;
26965;SDS011;14522;52.068;4.414;2023-01-19T06:01:23;13.10;;;1.77;;
26965;SDS011;14522;52.068;4.414;2023-01-19T06:03:49;7.93;;;1.50;;
26965;SDS011;14522;52.068;4.414;2023-01-19T06:06:16;6.40;;;1.00;;
26965;SDS011;14522;52.068;4.414;2023-01-19T06:08:42;12.18;;;2.05;;
26965;SDS011;14522;52.068;4.414;2023-01-19T06:11:10;11.35;;;1.52;;
26965;SDS011;14522;52.068;4.414;2023-01-19T06:13:36;11.55;;;1.83;;
26965;SDS011;14522;52.068;4.414;2023-01-19T06:16:07;9.45;;;1.30;;
26965;SDS011;14522;52.068;4.414;2023-01-19T06:18:33;9.55;;;1.48;;
26965;SDS011;14522;52.068;4.414;2023-01-19T06:21:06;5.15;;;0.90;;
26965;SDS011;14522;52.068;4.414;2023-01-19T06:23:33;14.35;;;1.48;;
26965;SDS011;14522;52.068;4.414;2023-01-19T06:26:00;6.93;;;0.98;;
26965;SDS011;14522;52.068;4.414;2023-01-19T06:28:26;10.10;;;1.33;;
26965;SDS011;14522;52.068;4.414;2023-01-19T06:30:53;8.15;;;1.60;;
26965;SDS011;14522;52.068;4.414;2023-01-19T06:33:20;8.27;;;1.33;;
26965;SDS011;14522;52.068;4.414;2023-01-19T06:35:47;9.23;;;1.23;;
26965;SDS011;14522;52.068;4.414;2023-01-19T06:38:13;10.80;;;1.33;;
26965;SDS011;14522;52.068;4.414;2023-01-19T06:40:40;11.82;;;2.20;;
26965;SDS011;14522;52.068;4.414;2023-01-19T06:43:06;7.35;;;1.50;;
26965;SDS011;14522;52.068;4.414;2023-01-19T06:45:33;7.47;;;0.95;;
26965;SDS011;14522;52.068;4.414;2023-01-19T06:47:59;13.57;;;1.30;;
26965;SDS011;14522;52.068;4.414;2023-01-19T06:50:26;8.27;;;1.65;;
26965;SDS011;14522;52.068;4.414;2023-01-19T06:52:52;15.77;;;1.83;;
26965;SDS011;14522;52.068;4.414;2023-01-19T06:55:18;3.42;;;1.20;;
26965;SDS011;14522;52.068;4.414;2023-01-19T06:57:45;9.68;;;1.73;;
26965;SDS011;14522;52.068;4.414;2023-01-19T07:00:12;12.70;;;1.27;;
26965;SDS011;14522;52.068;4.414;2023-01-19T07:02:41;9.48;;;1.52;;
26965;SDS011;14522;52.068;4.414;2023-01-19T07:05:10;8.38;;;1.23;;
26965;SDS011;14522;52.068;4.414;2023-01-19T07:07:40;5.03;;;1.38;;
26965;SDS011;14522;52.068;4.414;2023-01-19T07:10:08;9.32;;;1.33;;
26965;SDS011;14522;52.068;4.414;2023-01-19T07:12:34;6.47;;;1.02;;
26965;SDS011;14522;52.068;4.414;2023-01-19T07:15:01;14.32;;;1.63;;
26965;SDS011;14522;52.068;4.414;2023-01-19T07:17:27;10.43;;;1.08;;
26965;SDS011;14522;52.068;4.414;2023-01-19T07:19:54;8.18;;;1.30;;
26965;SDS011;14522;52.068;4.414;2023-01-19T07:22:20;13.35;;;1.40;;
26965;SDS011;14522;52.068;4.414;2023-01-19T07:24:46;8.25;;;1.15;;
26965;SDS011;14522;52.068;4.414;2023-01-19T07:27:13;3.80;;;1.08;;
26965;SDS011;14522;52.068;4.414;2023-01-19T07:29:41;9.50;;;1.48;;
26965;SDS011;14522;52.068;4.414;2023-01-19T07:32:08;12.23;;;0.90;;
26965;SDS011;14522;52.068;4.414;2023-01-19T07:34:34;6.50;;;1.23;;
26965;SDS011;14522;52.068;4.414;2023-01-19T07:37:01;9.95;;;1.20;;
26965;SDS011;14522;52.068;4.414;2023-01-19T07:39:28;4.82;;;1.00;;
26965;SDS011;14522;52.068;4.414;2023-01-19T07:41:57;7.25;;;1.30;;
26965;SDS011;14522;52.068;4.414;2023-01-19T07:44:23;4.22;;;1.10;;
26965;SDS011;14522;52.068;4.414;2023-01-19T07:46:49;9.23;;;1.42;;
26965;SDS011;14522;52.068;4.414;2023-01-19T07:49:16;5.65;;;1.33;;
26965;SDS011;14522;52.068;4.414;2023-01-19T07:51:42;11.50;;;1.35;;
26965;SDS011;14522;52.068;4.414;2023-01-19T07:54:09;11.73;;;1.88;;
26965;SDS011;14522;52.068;4.414;2023-01-19T07:56:35;12.52;;;2.45;;
26965;SDS011;14522;52.068;4.414;2023-01-19T07:59:02;9.20;;;1.60;;
26965;SDS011;14522;52.068;4.414;2023-01-19T08:01:28;10.50;;;1.40;;
26965;SDS011;14522;52.068;4.414;2023-01-19T08:03:55;10.05;;;1.73;;
26965;SDS011;14522;52.068;4.414;2023-01-19T08:06:22;7.45;;;0.90;;
26965;SDS011;14522;52.068;4.414;2023-01-19T08:08:49;8.00;;;1.58;;
26965;SDS011;14522;52.068;4.414;2023-01-19T08:11:15;10.93;;;2.47;;
26965;SDS011;14522;52.068;4.414;2023-01-19T08:13:41;7.75;;;1.00;;
26965;SDS011;14522;52.068;4.414;2023-01-19T08:16:08;6.13;;;1.02;;
26965;SDS011;14522;52.068;4.414;2023-01-19T08:18:35;5.57;;;1.33;;
26965;SDS011;14522;52.068;4.414;2023-01-19T08:21:01;8.13;;;1.17;;
26965;SDS011;14522;52.068;4.414;2023-01-19T08:23:28;8.60;;;1.20;;
26965;SDS011;14522;52.068;4.414;2023-01-19T08:25:54;5.13;;;0.95;;
26965;SDS011;14522;52.068;4.414;2023-01-19T08:28:20;6.70;;;1.00;;
26965;SDS011;14522;52.068;4.414;2023-01-19T08:30:47;7.07;;;0.98;;
26965;SDS011;14522;52.068;4.414;2023-01-19T08:33:23;8.18;;;1.25;;
26965;SDS011;14522;52.068;4.414;2023-01-19T08:35:51;7.43;;;0.85;;
26965;SDS011;14522;52.068;4.414;2023-01-19T08:38:18;8.68;;;1.42;;
26965;SDS011;14522;52.068;4.414;2023-01-19T08:40:44;7.85;;;1.20;;
26965;SDS011;14522;52.068;4.414;2023-01-19T08:43:12;6.53;;;1.20;;
26965;SDS011;14522;52.068;4.414;2023-01-19T08:45:39;9.20;;;1.10;;
26965;SDS011;14522;52.068;4.414;2023-01-19T08:48:11;13.68;;;0.90;;
26965;SDS011;14522;52.068;4.414;2023-01-19T08:50:38;4.88;;;1.13;;
26965;SDS011;14522;52.068;4.414;2023-01-19T08:53:05;4.82;;;1.00;;
26965;SDS011;14522;52.068;4.414;2023-01-19T08:55:32;7.47;;;2.15;;
26965;SDS011;14522;52.068;4.414;2023-01-19T08:57:59;5.03;;;0.90;;
26965;SDS011;14522;52.068;4.414;2023-01-19T09:00:27;9.30;;;1.33;;
26965;SDS011;14522;52.068;4.414;2023-01-19T09:02:56;7.72;;;0.93;;
26965;SDS011;14522;52.068;4.414;2023-01-19T09:05:23;4.70;;;1.10;;
26965;SDS011;14522;52.068;4.414;2023-01-19T09:07:49;5.60;;;1.23;;
26965;SDS011;14522;52.068;4.414;2023-01-19T09:10:17;10.40;;;1.27;;
26965;SDS011;14522;52.068;4.414;2023-01-19T09:12:43;7.38;;;0.85;;
26965;SDS011;14522;52.068;4.414;2023-01-19T09:15:11;5.18;;;0.80;;
26965;SDS011;14522;52.068;4.414;2023-01-19T09:17:39;10.35;;;1.25;;
26965;SDS011;14522;52.068;4.414;2023-01-19T09:20:08;14.75;;;1.42;;
26965;SDS011;14522;52.068;4.414;2023-01-19T09:22:35;6.22;;;1.10;;
26965;SDS011;14522;52.068;4.414;2023-01-19T09:25:01;6.53;;;1.25;;
26965;SDS011;14522;52.068;4.414;2023-01-19T09:27:28;7.15;;;0.90;;
26965;SDS011;14522;52.068;4.414;2023-01-19T09:29:54;9.65;;;1.13;;
26965;SDS011;14522;52.068;4.414;2023-01-19T09:32:21;3.60;;;0.70;;
26965;SDS011;14522;52.068;4.414;2023-01-19T09:34:48;7.97;;;1.15;;
26965;SDS011;14522;52.068;4.414;2023-01-19T09:37:14;5.93;;;1.15;;
26965;SDS011;14522;52.068;4.414;2023-01-19T09:39:41;4.45;;;0.98;;
26965;SDS011;14522;52.068;4.414;2023-01-19T09:42:12;3.85;;;0.80;;
26965;SDS011;14522;52.068;4.414;2023-01-19T09:44:43;9.02;;;0.95;;
26965;SDS011;14522;52.068;4.414;2023-01-19T09:47:13;5.75;;;0.80;;
26965;SDS011;14522;52.068;4.414;2023-01-19T09:49:41;5.25;;;0.55;;
26965;SDS011;14522;52.068;4.414;2023-01-19T09:52:10;1.65;;;0.50;;
26965;SDS011;14522;52.068;4.414;2023-01-19T09:54:54;5.10;;;1.00;;
26965;SDS011;14522;52.068;4.414;2023-01-19T09:57:24;2.08;;;0.73;;
26965;SDS011;14522;52.068;4.414;2023-01-19T09:59:52;5.53;;;1.00;;
26965;SDS011;14522;52.068;4.414;2023-01-19T10:05:03;4.30;;;0.60;;
26965;SDS011;14522;52.068;4.414;2023-01-19T10:12:47;5.80;;;0.60;;
26965;SDS011;14522;52.068;4.414;2023-01-19T10:15:21;3.05;;;0.70;;
26965;SDS011;14522;52.068;4.414;2023-01-19T10:20:24;6.75;;;0.70;;
26965;SDS011;14522;52.068;4.414;2023-01-19T10:22:52;4.25;;;1.05;;
26965;SDS011;14522;52.068;4.414;2023-01-19T10:25:20;5.35;;;0.63;;
26965;SDS011;14522;52.068;4.414;2023-01-19T10:27:48;5.32;;;0.77;;
26965;SDS011;14522;52.068;4.414;2023-01-19T10:30:22;4.10;;;0.50;;
26965;SDS011;14522;52.068;4.414;2023-01-19T10:32:49;4.28;;;0.52;;
26965;SDS011;14522;52.068;4.414;2023-01-19T10:35:18;5.07;;;0.93;;
26965;SDS011;14522;52.068;4.414;2023-01-19T10:37:50;4.38;;;0.68;;
26965;SDS011;14522;52.068;4.414;2023-01-19T10:42:46;3.75;;;0.68;;
26965;SDS011;14522;52.068;4.414;2023-01-19T10:45:19;2.30;;;0.43;;
26965;SDS011;14522;52.068;4.414;2023-01-19T10:47:47;2.47;;;0.65;;
26965;SDS011;14522;52.068;4.414;2023-01-19T10:52:52;3.72;;;0.80;;
26965;SDS011;14522;52.068;4.414;2023-01-19T10:55:27;5.32;;;0.60;;
26965;SDS011;14522;52.068;4.414;2023-01-19T10:57:54;1.52;;;0.82;;
26965;SDS011;14522;52.068;4.414;2023-01-19T11:02:53;4.63;;;0.65;;
26965;SDS011;14522;52.068;4.414;2023-01-19T11:05:21;7.88;;;0.73;;
26965;SDS011;14522;52.068;4.414;2023-01-19T11:07:48;4.20;;;0.80;;
26965;SDS011;14522;52.068;4.414;2023-01-19T11:12:43;4.32;;;1.00;;
26965;SDS011;14522;52.068;4.414;2023-01-19T11:15:13;2.30;;;0.65;;
26965;SDS011;14522;52.068;4.414;2023-01-19T11:17:41;2.45;;;0.60;;
26965;SDS011;14522;52.068;4.414;2023-01-19T11:20:17;3.08;;;0.50;;
26965;SDS011;14522;52.068;4.414;2023-01-19T11:22:44;3.92;;;0.50;;
26965;SDS011;14522;52.068;4.414;2023-01-19T11:25:20;4.25;;;0.65;;
26965;SDS011;14522;52.068;4.414;2023-01-19T11:27:49;3.47;;;0.82;;
26965;SDS011;14522;52.068;4.414;2023-01-19T11:30:17;6.82;;;0.85;;
26965;SDS011;14522;52.068;4.414;2023-01-19T11:32:45;5.25;;;0.82;;
26965;SDS011;14522;52.068;4.414;2023-01-19T11:40:32;2.42;;;0.82;;
26965;SDS011;14522;52.068;4.414;2023-01-19T11:43:00;4.45;;;0.65;;
26965;SDS011;14522;52.068;4.414;2023-01-19T11:45:27;5.10;;;0.60;;
26965;SDS011;14522;52.068;4.414;2023-01-19T11:47:53;2.97;;;0.70;;
26965;SDS011;14522;52.068;4.414;2023-01-19T11:50:32;3.42;;;0.90;;
26965;SDS011;14522;52.068;4.414;2023-01-19T11:55:49;3.58;;;1.05;;
26965;SDS011;14522;52.068;4.414;2023-01-19T11:58:16;7.32;;;0.60;;
26965;SDS011;14522;52.068;4.414;2023-01-19T12:00:44;5.18;;;0.85;;
26965;SDS011;14522;52.068;4.414;2023-01-19T12:03:14;3.50;;;0.60;;
26965;SDS011;14522;52.068;4.414;2023-01-19T12:05:45;2.83;;;0.80;;
26965;SDS011;14522;52.068;4.414;2023-01-19T12:08:15;4.57;;;0.70;;
26965;SDS011;14522;52.068;4.414;2023-01-19T12:10:44;4.20;;;0.93;;
26965;SDS011;14522;52.068;4.414;2023-01-19T12:13:17;5.88;;;0.85;;
26965;SDS011;14522;52.068;4.414;2023-01-19T12:15:44;4.50;;;0.80;;
26965;SDS011;14522;52.068;4.414;2023-01-19T12:18:17;4.93;;;0.60;;
26965;SDS011;14522;52.068;4.414;2023-01-19T12:20:52;3.42;;;1.33;;
26965;SDS011;14522;52.068;4.414;2023-01-19T12:26:16;3.83;;;0.60;;
26965;SDS011;14522;52.068;4.414;2023-01-19T12:28:46;3.90;;;0.80;;
26965;SDS011;14522;52.068;4.414;2023-01-19T12:31:16;7.00;;;0.90;;
26965;SDS011;14522;52.068;4.414;2023-01-19T12:33:43;6.88;;;1.02;;
26965;SDS011;14522;52.068;4.414;2023-01-19T12:38:54;5.72;;;0.80;;
26965;SDS011;14522;52.068;4.414;2023-01-19T12:51:38;2.97;;;0.60;;
26965;SDS011;14522;52.068;4.414;2023-01-19T12:54:05;1.85;;;0.40;;
26965;SDS011;14522;52.068;4.414;2023-01-19T12:56:33;3.22;;;0.47;;
26965;SDS011;14522;52.068;4.414;2023-01-19T12:59:00;3.67;;;1.00;;
26965;SDS011;14522;52.068;4.414;2023-01-19T13:01:27;3.03;;;0.90;;
26965;SDS011;14522;52.068;4.414;2023-01-19T13:14:39;3.67;;;0.68;;
26965;SDS011;14522;52.068;4.414;2023-01-19T13:17:27;6.45;;;0.95;;
26965;SDS011;14522;52.068;4.414;2023-01-19T13:19:57;3.33;;;0.50;;
26965;SDS011;14522;52.068;4.414;2023-01-19T13:25:12;2.50;;;0.60;;
26965;SDS011;14522;52.068;4.414;2023-01-19T13:27:39;3.35;;;0.60;;
26965;SDS011;14522;52.068;4.414;2023-01-19T13:30:09;7.07;;;0.63;;
26965;SDS011;14522;52.068;4.414;2023-01-19T13:32:38;1.73;;;0.47;;
26965;SDS011;14522;52.068;4.414;2023-01-19T13:35:05;6.65;;;0.75;;
26965;SDS011;14522;52.068;4.414;2023-01-19T13:37:38;1.88;;;0.63;;
26965;SDS011;14522;52.068;4.414;2023-01-19T13:40:05;5.68;;;1.48;;
26965;SDS011;14522;52.068;4.414;2023-01-19T13:42:38;4.45;;;0.82;;
26965;SDS011;14522;52.068;4.414;2023-01-19T13:45:14;4.63;;;0.70;;
26965;SDS011;14522;52.068;4.414;2023-01-19T13:47:42;4.00;;;0.57;;
26965;SDS011;14522;52.068;4.414;2023-01-19T13:50:21;5.15;;;0.60;;
26965;SDS011;14522;52.068;4.414;2023-01-19T13:52:47;4.03;;;0.60;;
26965;SDS011;14522;52.068;4.414;2023-01-19T13:55:16;2.78;;;0.28;;
26965;SDS011;14522;52.068;4.414;2023-01-19T13:57:44;2.80;;;0.50;;
26965;SDS011;14522;52.068;4.414;2023-01-19T14:02:38;4.53;;;0.80;;
26965;SDS011;14522;52.068;4.414;2023-01-19T14:05:14;4.65;;;0.85;;
26965;SDS011;14522;52.068;4.414;2023-01-19T14:07:41;3.33;;;0.63;;
26965;SDS011;14522;52.068;4.414;2023-01-19T14:10:11;3.20;;;0.50;;
26965;SDS011;14522;52.068;4.414;2023-01-19T14:12:37;3.38;;;0.50;;
26965;SDS011;14522;52.068;4.414;2023-01-19T14:15:19;4.28;;;0.68;;
26965;SDS011;14522;52.068;4.414;2023-01-19T14:18:04;3.65;;;0.47;;
26965;SDS011;14522;52.068;4.414;2023-01-19T14:23:02;3.47;;;0.73;;
26965;SDS011;14522;52.068;4.414;2023-01-19T14:25:32;3.78;;;0.68;;
26965;SDS011;14522;52.068;4.414;2023-01-19T14:30:54;3.33;;;0.73;;
26965;SDS011;14522;52.068;4.414;2023-01-19T14:33:33;10.10;;;0.73;;
26965;SDS011;14522;52.068;4.414;2023-01-19T14:38:43;3.35;;;0.77;;
26965;SDS011;14522;52.068;4.414;2023-01-19T14:41:10;2.17;;;0.60;;
26965;SDS011;14522;52.068;4.414;2023-01-19T14:43:43;5.78;;;1.35;;
26965;SDS011;14522;52.068;4.414;2023-01-19T14:46:15;4.22;;;0.60;;
26965;SDS011;14522;52.068;4.414;2023-01-19T14:48:46;5.40;;;0.60;;
26965;SDS011;14522;52.068;4.414;2023-01-19T14:51:15;3.95;;;1.02;;
26965;SDS011;14522;52.068;4.414;2023-01-19T14:53:45;3.38;;;0.80;;
26965;SDS011;14522;52.068;4.414;2023-01-19T14:56:12;2.38;;;0.50;;
26965;SDS011;14522;52.068;4.414;2023-01-19T14:58:48;4.13;;;0.70;;
26965;SDS011;14522;52.068;4.414;2023-01-19T15:01:14;3.92;;;1.05;;
26965;SDS011;14522;52.068;4.414;2023-01-19T15:03:41;3.25;;;0.40;;
26965;SDS011;14522;52.068;4.414;2023-01-19T15:06:18;3.85;;;0.98;;
26965;SDS011;14522;52.068;4.414;2023-01-19T15:08:44;6.00;;;0.93;;
26965;SDS011;14522;52.068;4.414;2023-01-19T15:11:20;5.13;;;0.80;;
26965;SDS011;14522;52.068;4.414;2023-01-19T15:13:47;3.80;;;0.50;;
26965;SDS011;14522;52.068;4.414;2023-01-19T15:16:14;1.85;;;0.77;;
26965;SDS011;14522;52.068;4.414;2023-01-19T15:18:41;3.60;;;1.13;;
26965;SDS011;14522;52.068;4.414;2023-01-19T15:21:11;2.58;;;0.60;;
26965;SDS011;14522;52.068;4.414;2023-01-19T15:23:39;2.60;;;0.63;;
26965;SDS011;14522;52.068;4.414;2023-01-19T15:26:06;2.78;;;0.82;;
26965;SDS011;14522;52.068;4.414;2023-01-19T15:28:32;6.32;;;1.40;;
26965;SDS011;14522;52.068;4.414;2023-01-19T15:30:59;4.70;;;0.98;;
26965;SDS011;14522;52.068;4.414;2023-01-19T15:33:26;4.93;;;0.90;;
26965;SDS011;14522;52.068;4.414;2023-01-19T15:35:53;3.70;;;0.80;;
26965;SDS011;14522;52.068;4.414;2023-01-19T15:38:19;7.55;;;1.45;;
26965;SDS011;14522;52.068;4.414;2023-01-19T15:40:46;6.50;;;1.10;;
26965;SDS011;14522;52.068;4.414;2023-01-19T15:43:16;1.83;;;0.68;;
26965;SDS011;14522;52.068;4.414;2023-01-19T15:45:53;5.55;;;1.10;;
26965;SDS011;14522;52.068;4.414;2023-01-19T15:48:22;4.28;;;1.10;;
26965;SDS011;14522;52.068;4.414;2023-01-19T15:50:48;6.57;;;1.10;;
26965;SDS011;14522;52.068;4.414;2023-01-19T15:53:15;6.47;;;1.42;;
26965;SDS011;14522;52.068;4.414;2023-01-19T15:55:42;6.18;;;1.10;;
26965;SDS011;14522;52.068;4.414;2023-01-19T15:58:09;11.07;;;1.65;;
26965;SDS011;14522;52.068;4.414;2023-01-19T16:00:39;8.07;;;2.22;;
26965;SDS011;14522;52.068;4.414;2023-01-19T16:03:05;7.00;;;2.88;;
26965;SDS011;14522;52.068;4.414;2023-01-19T16:05:32;9.60;;;2.53;;
26965;SDS011;14522;52.068;4.414;2023-01-19T16:08:09;4.38;;;2.05;;
26965;SDS011;14522;52.068;4.414;2023-01-19T16:10:35;5.05;;;1.27;;
26965;SDS011;14522;52.068;4.414;2023-01-19T16:13:02;5.03;;;1.58;;
26965;SDS011;14522;52.068;4.414;2023-01-19T16:15:28;8.23;;;2.42;;
26965;SDS011;14522;52.068;4.414;2023-01-19T16:17:55;13.38;;;3.30;;